Time;durP1;ratioP1;P1;durP2;ratioP2;P2;SDS_P1;SDS_P2;PMS_P1;PMS_P2;Temp;Humidity;BMP_temperature;BMP_pressure;BME280_temperature;BME280_humidity;BME280_pressure;Samples;Min_cycle;Max_cycle;Signal;HPM_P1;HPM_P2
2022/11/21 00:00:04;;;;;;;18.58;11.98;;;;;;;;;;6134505;23;20021;-84
2022/11/21 00:02:30;;;;;;;22.73;12.45;;;;;;;;;;6159272;23;20088;-89
2022/11/21 00:04:56;;;;;;;15.07;11.45;;;;;;;;;;6134727;23;20028;-84
2022/11/21 00:07:22;;;;;;;17.38;11.80;;;;;;;;;;6134689;23;20024;-86
2022/11/21 00:09:48;;;;;;;16.48;11.07;;;;;;;;;;6134824;23;20017;-84
2022/11/21 00:12:16;;;;;;;14.48;10.80;;;;;;;;;;6159195;23;20493;-84
2022/11/21 00:14:42;;;;;;;17.17;11.63;;;;;;;;;;6159374;23;20091;-85
2022/11/21 00:17:08;;;;;;;18.08;12.20;;;;;;;;;;6134519;23;20013;-86
2022/11/21 00:19:34;;;;;;;18.17;11.32;;;;;;;;;;6134866;23;20101;-86
2022/11/21 00:22:00;;;;;;;15.68;10.73;;;;;;;;;;6134762;23;20033;-86
2022/11/21 00:24:26;;;;;;;17.77;11.43;;;;;;;;;;6135776;23;20029;-85
2022/11/21 00:26:52;;;;;;;18.10;12.68;;;;;;;;;;6136614;23;20028;-85
2022/11/21 00:29:18;;;;;;;17.88;11.30;;;;;;;;;;6136208;23;20021;-84
2022/11/21 00:31:44;;;;;;;16.75;11.40;;;;;;;;;;6161083;23;20057;-85
2022/11/21 00:34:10;;;;;;;19.42;12.27;;;;;;;;;;6160886;23;20025;-85
2022/11/21 00:36:36;;;;;;;22.33;13.60;;;;;;;;;;6136225;23;20029;-84
2022/11/21 00:39:02;;;;;;;20.75;12.25;;;;;;;;;;6136092;23;20056;-84
2022/11/21 00:41:28;;;;;;;18.42;12.85;;;;;;;;;;6136310;23;20028;-84
2022/11/21 00:43:54;;;;;;;21.75;13.20;;;;;;;;;;6160770;23;20021;-85
2022/11/21 00:46:20;;;;;;;18.65;12.48;;;;;;;;;;6136371;23;20022;-84
2022/11/21 00:48:46;;;;;;;18.35;11.65;;;;;;;;;;6136240;23;20488;-84
2022/11/21 00:51:12;;;;;;;22.00;12.10;;;;;;;;;;6160762;23;20462;-86
2022/11/21 00:53:38;;;;;;;17.70;11.63;;;;;;;;;;6136056;23;20025;-83
2022/11/21 00:56:04;;;;;;;17.60;11.30;;;;;;;;;;6136130;23;20047;-84
2022/11/21 00:58:30;;;;;;;17.88;13.05;;;;;;;;;;6160386;23;20048;-84
2022/11/21 01:01:03;;;;;;;18.98;11.65;;;;;;;;;;6160718;23;20056;-84
2022/11/21 01:03:31;;;;;;;20.17;12.55;;;;;;;;;;6160968;23;20186;-86
2022/11/21 01:06:23;;;;;;;17.73;10.30;;;;;;;;;;6160642;23;20020;-84
2022/11/21 01:08:49;;;;;;;15.23;10.27;;;;;;;;;;6076736;23;20077;-84
2022/11/21 01:11:17;;;;;;;19.98;12.07;;;;;;;;;;6076928;23;20417;-84
2022/11/21 01:13:43;;;;;;;18.63;10.35;;;;;;;;;;6076827;23;20018;-84
2022/11/21 01:16:11;;;;;;;15.70;10.48;;;;;;;;;;6076689;23;20033;-85
2022/11/21 01:18:37;;;;;;;15.38;10.70;;;;;;;;;;6076454;23;20399;-84
2022/11/21 01:21:04;;;;;;;19.67;11.23;;;;;;;;;;6100574;23;20030;-86
2022/11/21 01:23:30;;;;;;;15.55;10.30;;;;;;;;;;6076723;23;20061;-85
2022/11/21 01:26:01;;;;;;;15.70;10.63;;;;;;;;;;6076984;23;20356;-83
2022/11/21 01:28:27;;;;;;;17.80;11.45;;;;;;;;;;6076933;23;20576;-83
2022/11/21 01:30:53;;;;;;;15.70;10.75;;;;;;;;;;6076894;23;20026;-86
2022/11/21 01:33:19;;;;;;;15.02;11.38;;;;;;;;;;6077317;23;20018;-87
2022/11/21 01:35:45;;;;;;;17.30;11.43;;;;;;;;;;6101803;23;20081;-87
2022/11/21 01:38:11;;;;;;;16.75;11.75;;;;;;;;;;6101215;23;20022;-83
2022/11/21 01:40:38;;;;;;;14.13;10.07;;;;;;;;;;6102104;23;20053;-84
2022/11/21 01:43:14;;;;;;;17.10;12.82;;;;;;;;;;6101442;23;20021;-83
2022/11/21 01:45:55;;;;;;;17.90;11.60;;;;;;;;;;6135274;23;20029;-83
2022/11/21 01:48:45;;;;;;;15.63;10.73;;;1.10;99.90;;;;;;6137027;23;20017;-84
2022/11/21 01:51:20;;;;;;;18.95;11.95;;;;;;;;;;6137187;23;20017;-84
2022/11/21 01:53:48;;;;;;;16.83;11.10;;;;;;;;;;6160753;23;20103;-82
2022/11/21 01:56:15;;;;;;;17.50;12.45;;;;;;;;;;6161731;23;20021;-87
2022/11/21 01:58:42;;;;;;;18.27;12.02;;;;;;;;;;6136328;23;20028;-87
2022/11/21 02:01:08;;;;;;;19.15;12.90;;;;;;;;;;6137948;23;20025;-87
2022/11/21 02:03:36;;;;;;;20.98;12.18;;;;;;;;;;6137225;23;20021;-86
2022/11/21 02:06:02;;;;;;;17.65;11.73;;;;;;;;;;6161992;23;20063;-90
2022/11/21 02:08:28;;;;;;;18.60;12.07;;;;;;;;;;6137959;23;20021;-88
2022/11/21 02:10:57;;;;;;;16.63;12.25;;;;;;;;;;6138595;23;20021;-88
2022/11/21 02:13:24;;;;;;;20.40;12.35;;;;;;;;;;6160489;23;20032;-86
2022/11/21 02:15:50;;;;;;;16.90;11.43;;;;;;;;;;6160295;23;20185;-86
2022/11/21 02:18:16;;;;;;;17.70;11.52;;;;;;;;;;6135625;23;20060;-86
2022/11/21 02:20:45;;;;;;;19.27;12.32;;;;;;;;;;6160102;23;20028;-88
2022/11/21 02:23:17;;;;;;;18.83;12.50;;;;;;;;;;6135539;23;20082;-89
2022/11/21 02:25:43;;;;;;;18.35;12.23;;;;;;;;;;6135608;23;20029;-87
2022/11/21 02:28:12;;;;;;;18.38;11.57;;;;;;;;;;6135232;23;20044;-84
2022/11/21 02:30:39;;;;;;;24.48;12.70;;;;;;;;;;6135270;23;20446;-83
2022/11/21 02:33:05;;;;;;;17.77;11.73;;;;;;;;;;6135298;23;20021;-86
2022/11/21 02:35:32;;;;;;;19.25;13.45;;;;;;;;;;6161091;23;20028;-84
2022/11/21 02:38:04;;;;;;;21.70;13.00;;;;;;;;;;6135048;23;20028;-86
2022/11/21 02:40:37;;;;;;;17.65;11.52;;;;;;;;;;6135392;23;20435;-86
2022/11/21 02:43:09;;;;;;;16.95;11.43;;;;;;;;;;6135148;23;20024;-86
2022/11/21 02:45:38;;;;;;;21.83;13.48;;;;;;;;;;6135147;23;20032;-85
2022/11/21 02:48:04;;;;;;;18.33;11.63;;;;;;;;;;6135234;23;20056;-84
2022/11/21 02:50:32;;;;;;;18.83;12.38;;;;;;;;;;6159561;23;20466;-85
2022/11/21 02:52:58;;;;;;;21.30;11.85;;;;;;;;;;6135224;23;20063;-83
2022/11/21 02:55:25;;;;;;;22.15;12.70;;;;;;;;;;6134837;23;20063;-83
2022/11/21 02:57:51;;;;;;;18.38;12.18;;;;;;;;;;6159640;23;20536;-84
2022/11/21 03:00:17;;;;;;;22.40;13.73;;;;;;;;;;6139397;23;20021;-83
2022/11/21 03:02:43;;;;;;;18.95;12.48;;;;;;;;;;6166191;23;20079;-84
2022/11/21 03:05:10;;;;;;;20.80;12.27;;;;;;;;;;6141182;23;20052;-87
2022/11/21 03:07:37;;;;;;;26.70;15.32;;;;;;;;;;6165434;23;20021;-89
2022/11/21 03:10:03;;;;;;;25.88;14.93;;;;;;;;;;6165669;23;20032;-83
2022/11/21 03:12:29;;;;;;;21.65;12.93;;;;;;;;;;6139376;23;20398;-86
2022/11/21 03:14:55;;;;;;;22.00;13.48;;;;;;;;;;6140540;23;20021;-88
2022/11/21 03:17:21;;;;;;;26.55;15.73;;;;;;;;;;6140975;23;20017;-84
2022/11/21 03:19:47;;;;;;;22.27;14.75;;;;;;;;;;6140289;23;20021;-83
2022/11/21 03:22:14;;;;;;;20.95;14.13;;;;;;;;;;6147853;23;20484;-84
2022/11/21 03:24:40;;;;;;;23.77;14.85;;;;;;;;;;6146795;23;20025;-87
2022/11/21 03:27:07;;;;;;;23.00;15.13;;;;;;;;;;6144642;23;20347;-90
2022/11/21 03:29:33;;;;;;;29.15;15.57;;;;;;;;;;6165866;23;20032;-88
2022/11/21 03:31:59;;;;;;;23.52;13.98;;;;;;;;;;6140065;23;20014;-88
2022/11/21 03:34:25;;;;;;;27.40;15.18;;;;;;;;;;6140932;23;20029;-84
2022/11/21 03:36:51;;;;;;;26.73;15.98;;;;;;;;;;6168087;23;20013;-83
2022/11/21 03:39:17;;;;;;;29.98;17.30;;;;;;;;;;6143927;23;20028;-83
2022/11/21 03:41:43;;;;;;;22.77;14.82;;;;;;;;;;6146283;23;20028;-83
2022/11/21 03:44:10;;;;;;;23.63;15.80;;;;;;;;;;6145449;23;20028;-84
2022/11/21 03:46:37;;;;;;;26.05;15.27;;;;;;;;;;6140851;23;20021;-84
2022/11/21 03:49:04;;;;;;;27.10;16.55;;;;;;;;;;6142321;23;20545;-84
2022/11/21 03:51:30;;;;;;;31.60;16.73;;;;;;;;;;6168044;23;20497;-83
2022/11/21 03:53:56;;;;;;;30.27;16.88;;;;;;;;;;6141958;23;20108;-84
2022/11/21 03:56:22;;;;;;;25.10;15.80;;;;;;;;;;6159273;23;20021;-82
2022/11/21 03:58:48;;;;;;;27.35;15.95;;;;;;;;;;6135022;23;20021;-85
2022/11/21 04:01:15;;;;;;;31.88;15.63;;;;;;;;;;6136639;23;20017;-84
2022/11/21 04:03:41;;;;;;;25.98;15.30;;;;;;;;;;6137953;23;20065;-83
2022/11/21 04:06:08;;;;;;;28.92;17.33;;;;;;;;;;6136577;23;20060;-82
2022/11/21 04:08:34;;;;;;;29.15;15.77;;;;;;;;;;6161138;23;20032;-83
2022/11/21 04:11:00;;;;;;;28.60;15.43;;;;;;;;;;6161565;23;20032;-83
2022/11/21 04:13:26;;;;;;;24.23;15.55;;;;;;;;;;6136569;23;20348;-84
2022/11/21 04:15:52;;;;;;;24.50;16.95;;;;;;;;;;6136674;23;20025;-83
2022/11/21 04:18:18;;;;;;;25.92;15.43;;;;;;;;;;6136534;23;20017;-83
2022/11/21 04:20:44;;;;;;;29.75;16.02;;;;;;;;;;6160842;23;20469;-83
2022/11/21 04:23:10;;;;;;;30.20;17.00;;;;;;;;;;6161015;23;20538;-85
2022/11/21 04:25:36;;;;;;;31.75;17.88;;;;;;;;;;6136325;23;20177;-84
2022/11/21 04:28:07;;;;;;;27.02;17.25;;;;;;;;;;6136098;23;20021;-82
2022/11/21 04:30:36;;;;;;;;;;;0.20;99.90;;;;;;6161347;23;20021;-82
2022/11/21 04:33:02;;;;;;;35.58;17.77;;;;;;;;;;6136281;23;19923;-83
2022/11/21 04:35:28;;;;;;;38.45;17.67;;;;;;;;;;6160866;23;20411;-85
2022/11/21 04:37:54;;;;;;;30.38;18.65;;;;;;;;;;6160782;23;20458;-86
2022/11/21 04:40:20;;;;;;;31.65;18.13;;;;;;;;;;6136505;23;20029;-86
2022/11/21 04:42:47;;;;;;;33.00;17.83;;;;;;;;;;6136310;23;20028;-87
2022/11/21 04:45:14;;;;;;;34.13;19.08;;;;;;;;;;6136176;23;20021;-86
2022/11/21 04:47:41;;;;;;;33.10;17.08;;;;;;;;;;6136280;23;20021;-85
2022/11/21 04:50:08;;;;;;;27.67;16.48;;;;;;;;;;6136154;23;20056;-86
2022/11/21 04:52:34;;;;;;;32.03;18.05;;;;;;;;;;6160692;23;20028;-86
2022/11/21 04:55:00;;;;;;;29.67;16.60;;;;;;;;;;6136120;23;20029;-85
2022/11/21 04:57:29;;;;;;;29.23;16.90;;;;;;;;;;6160584;23;20028;-86
2022/11/21 04:59:55;;;;;;;28.27;16.35;;;;;;;;;;6136277;23;20057;-86
2022/11/21 05:02:22;;;;;;;34.75;20.23;;;;;;;;;;6136023;23;20095;-83
2022/11/21 05:04:48;;;;;;;31.25;16.48;;;;;;;;;;6136144;23;20048;-86
2022/11/21 05:07:14;;;;;;;31.77;18.35;;;;;;;;;;6135831;23;20033;-86
2022/11/21 05:09:40;;;;;;;30.27;17.83;;;;;;;;;;6160348;23;20028;-86
2022/11/21 05:14:51;;;;;;;27.48;16.40;;;;;;;;;;6160424;23;20387;-86
2022/11/21 05:17:17;;;;;;;36.50;18.60;;;;;;;;;;6160555;23;20079;-87
2022/11/21 05:19:43;;;;;;;30.27;17.75;;;;;;;;;;6135758;23;20021;-86
2022/11/21 05:22:09;;;;;;;24.67;16.98;;;;;;;;;;6160449;23;20018;-85
2022/11/21 05:24:35;;;;;;;30.35;17.88;;;;;;;;;;6135857;23;20023;-85
2022/11/21 05:27:01;;;;;;;29.30;17.80;;;;;;;;;;6135765;23;20028;-86
2022/11/21 05:29:27;;;;;;;30.63;18.70;;;;;;;;;;6135899;23;20028;-86
2022/11/21 05:31:53;;;;;;;31.00;17.45;;;;;;;;;;6135658;23;20035;-86
2022/11/21 05:34:19;;;;;;;29.52;17.55;;;;;;;;;;6135812;23;20399;-86
2022/11/21 05:36:45;;;;;;;32.15;17.67;;;;;;;;;;6160388;23;20394;-86
2022/11/21 05:39:11;;;;;;;32.92;18.88;;;;;;;;;;6135816;23;20025;-86
2022/11/21 05:41:37;;;;;;;29.98;17.60;;;;;;;;;;6135704;23;20080;-86
2022/11/21 05:44:03;;;;;;;30.75;18.48;;;;;;;;;;6160549;23;20029;-85
2022/11/21 05:46:29;;;;;;;35.42;18.55;;;;;;;;;;6136181;23;20021;-86
2022/11/21 05:48:55;;;;;;;31.98;18.38;;;;;;;;;;6136893;23;20017;-82
2022/11/21 05:51:22;;;;;;;29.30;17.83;;;;;;;;;;6136134;23;20024;-84
2022/11/21 05:53:48;;;;;;;28.73;16.80;;;;;;;;;;6160467;23;20017;-84
2022/11/21 05:56:15;;;;;;;34.70;18.95;;;;;;;;;;6136290;23;20025;-82
2022/11/21 05:58:41;;;;;;;27.52;16.67;;;;;;;;;;6136118;23;20028;-84
2022/11/21 06:01:08;;;;;;;30.60;18.55;;;;;;;;;;6160618;23;20032;-85
2022/11/21 06:03:36;;;;;;;30.85;17.90;;;;;;;;;;6135913;23;20366;-83
2022/11/21 06:06:03;;;;;;;28.73;16.63;;;;;;;;;;6135592;23;20024;-86
2022/11/21 06:08:31;;;;;;;28.08;17.88;;;;;;;;;;6160206;23;20021;-83
2022/11/21 06:11:00;;;;;;;29.75;16.98;;;;;;;;;;6136898;23;20115;-85
2022/11/21 06:13:32;;;;;;;31.70;19.52;;;;;;;;;;6160017;23;20056;-83
2022/11/21 06:15:58;;;;;;;27.45;16.30;;;;;;;;;;6135587;23;20032;-83
2022/11/21 06:18:25;;;;;;;29.05;17.17;;;;;;;;;;6159989;23;20028;-85
2022/11/21 06:20:51;;;;;;;32.55;18.35;;;;;;;;;;6134946;23;20029;-83
2022/11/21 06:23:17;;;;;;;28.85;17.60;;;;;;;;;;6159493;23;20342;-82
2022/11/21 06:25:46;;;;;;;26.70;17.20;;;;;;;;;;6186555;23;20025;-83
2022/11/21 06:28:12;;;;;;;31.20;15.90;;;;;;;;;;6135329;23;20095;-83
2022/11/21 06:30:38;;;;;;;27.70;16.40;;;;;;;;;;6161303;23;20029;-83
2022/11/21 06:33:05;;;;;;;25.40;15.30;;;;;;;;;;6135269;23;20485;-83
2022/11/21 06:35:31;;;;;;;30.10;16.25;;;;;;;;;;6135468;23;20056;-82
2022/11/21 06:37:57;;;;;;;26.33;17.08;;;;;;;;;;6136029;23;20024;-82
2022/11/21 06:40:25;;;;;;;29.80;16.75;;;;;;;;;;6159652;23;20025;-82
2022/11/21 06:42:51;;;;;;;32.08;17.80;;;;;;;;;;6135220;23;20021;-83
2022/11/21 06:45:17;;;;;;;30.73;16.45;;;;;;;;;;6141105;23;20025;-88
2022/11/21 06:47:44;;;;;;;29.15;16.30;;;;;;;;;;6142451;23;20017;-87
2022/11/21 06:50:10;;;;;;;27.25;15.60;;;;;;;;;;6142921;23;20366;-89
2022/11/21 06:52:36;;;;;;;30.10;17.48;;;;;;;;;;6118576;23;20517;-85
2022/11/21 06:55:03;;;;;;;25.42;17.20;;;;;;;;;;6168370;23;20028;-84
2022/11/21 06:57:31;;;;;;;29.95;17.10;;;;;;;;;;6166514;23;20350;-91
2022/11/21 06:59:58;;;;;;;29.15;18.42;;;;;;;;;;6193255;23;20353;-87
2022/11/21 07:02:24;;;;;;;30.83;17.23;;;;;;;;;;6141311;23;20048;-86
2022/11/21 07:04:50;;;;;;;28.20;15.15;;;;;;;;;;6192516;23;20029;-84
2022/11/21 07:07:16;;;;;;;29.48;15.82;;;;;;;;;;6165948;23;20079;-85
2022/11/21 07:09:43;;;;;;;27.77;16.65;;;;;;;;;;6165255;23;20080;-84
2022/11/21 07:14:54;;;;;;;28.48;16.38;;;;;;;;;;6191322;23;20017;-88
2022/11/21 07:17:20;;;;;;;28.38;17.45;;;;;;;;;;6139633;23;20036;-92
2022/11/21 07:19:46;;;;;;;30.20;17.30;;;;;;;;;;6162364;23;20024;-84
2022/11/21 07:22:12;;;;;;;29.75;17.35;;;;;;;;;;6187841;23;20088;-87
2022/11/21 07:24:38;;;;;;;29.40;18.88;;;;;;;;;;6161134;23;20088;-83
2022/11/21 07:27:04;;;;;;;31.67;16.77;;;;;;;;;;6161140;23;20443;-84
2022/11/21 07:29:30;;;;;;;32.35;17.17;;;;;;;;;;6160982;23;20064;-91
2022/11/21 07:31:56;;;;;;;34.95;19.55;;;;;;;;;;6188114;23;20059;-86
2022/11/21 07:34:23;;;;;;;34.65;17.83;;;;;;;;;;6160654;23;20029;-87
2022/11/21 07:36:49;;;;;;;29.00;17.10;;;;;;;;;;6136000;23;20017;-88
2022/11/21 07:39:15;;;;;;;30.15;16.40;;;;;;;;;;6159912;23;20459;-82
2022/11/21 07:41:41;;;;;;;27.05;15.77;;;;;;;;;;6186577;23;20051;-84
2022/11/21 07:44:07;;;;;;;33.40;17.80;;;;;;;;;;6160477;23;20450;-85
2022/11/21 07:46:33;;;;;;;28.88;16.52;;;;;;;;;;6161125;23;20459;-83
2022/11/21 07:49:01;;;;;;;28.70;16.35;;;;;;;;;;6189023;23;20017;-84
2022/11/21 07:51:27;;;;;;;28.42;17.27;;;;;;;;;;6139260;23;20029;-83
2022/11/21 07:53:53;;;;;;;30.00;17.70;;;;;;;;;;6139651;23;20060;-84
2022/11/21 07:56:19;;;;;;;35.20;18.88;;;;;;;;;;6188782;23;20025;-83
2022/11/21 07:58:45;;;;;;;31.83;17.05;;;;;;;;;;6188744;23;20446;-88
2022/11/21 08:01:11;;;;;;;37.15;18.98;;;;;;;;;;6162036;23;20076;-83
2022/11/21 08:03:37;;;;;;;32.58;17.45;;;;;;;;;;6188079;23;20403;-83
2022/11/21 08:06:04;;;;;;;34.80;17.65;;;;;;;;;;6163147;23;20078;-83
2022/11/21 08:08:31;;;;;;;30.52;16.88;;;;;;;;;;6139199;23;20021;-83
2022/11/21 08:10:57;;;;;;;27.05;17.17;;;;;;;;;;6165051;23;20021;-86
2022/11/21 08:13:23;;;;;;;36.90;18.60;;;;;;;;;;6192090;23;20101;-84
2022/11/21 08:15:49;;;;;;;29.88;16.83;;;;;;;;;;6165598;23;20087;-83
2022/11/21 08:18:19;;;;;;;35.72;19.65;;;;;;;;;;6165592;23;20021;-83
2022/11/21 08:20:45;;;;;;;35.55;18.92;;;;;;;;;;6142366;23;20021;-84
2022/11/21 08:23:11;;;;;;;29.63;17.42;;;;;;;;;;6167722;23;20021;-85
2022/11/21 08:25:38;;;;;;;31.67;17.70;;;;;;;;;;6144039;23;20025;-83
2022/11/21 08:28:04;;;;;;;33.08;18.73;;;;;;;;;;6142494;23;20100;-83
2022/11/21 08:30:31;;;;;;;40.97;19.58;;;;;;;;;;6168537;23;20083;-84
2022/11/21 08:32:57;;;;;;;27.13;17.33;;;;;;;;;;6168022;23;20021;-87
2022/11/21 08:35:24;;;;;;;31.65;18.40;;;;;;;;;;6144396;23;20025;-83
2022/11/21 08:37:54;;;;;;;31.48;18.70;;;;;;;;;;6142552;23;20367;-84
2022/11/21 08:40:23;;;;;;;31.85;18.15;;;;;;;;;;6145176;23;20032;-90
2022/11/21 08:43:03;;;;;;;35.63;18.38;;;;;;;;;;6169497;23;20017;-86
2022/11/21 08:45:29;;;;;;;34.80;17.98;;;;;;;;;;6143731;23;20051;-83
2022/11/21 08:47:55;;;;;;;38.03;20.15;;;;;;;;;;6146715;23;20027;-89
2022/11/21 08:50:22;;;;;;;35.35;21.15;;;;;;;;;;6147204;23;20025;-83
2022/11/21 08:52:48;;;;;;;35.60;20.20;;;;;;;;;;6173601;23;20151;-86
2022/11/21 08:55:15;;;;;;;32.50;18.98;;;;;;;;;;6175349;23;20017;-87
2022/11/21 08:57:41;;;;;;;31.45;18.50;;;;;;;;;;6195953;23;20032;-84
2022/11/21 09:00:08;;;;;;;30.58;18.48;;;;;;;;;;6171852;23;20057;-86
2022/11/21 09:02:35;;;;;;;34.45;19.63;;;;;;;;;;6172172;23;20021;-88
2022/11/21 09:05:01;;;;;;;31.17;17.73;;;;;;;;;;6200008;23;20052;-85
2022/11/21 09:07:27;;;;;;;32.28;19.05;;;;;;;;;;6174708;23;20104;-85
2022/11/21 09:09:53;;;;;;;28.63;16.77;;;;;;;;;;6147240;23;20079;-86
2022/11/21 09:12:20;;;;;;;36.63;19.50;;;;;;;;;;6166663;23;20048;-83
2022/11/21 09:20:15;;;;;;;33.78;18.88;;;;;;;;;;6163954;23;20063;-89
2022/11/21 09:22:42;;;;;;;32.15;18.60;;;;;;;;;;6150455;23;20035;-85
2022/11/21 09:25:08;;;;;;;27.92;17.27;;;;;;;;;;6148733;23;20047;-90
2022/11/21 09:27:35;;;;;;;31.38;18.75;;;;;;;;;;6167819;23;20029;-93
2022/11/21 09:30:01;;;;;;;36.00;18.30;;;;;;;;;;6168025;23;20021;-92
2022/11/21 09:32:27;;;;;;;30.02;18.77;;;;;;;;;;6167682;23;20025;-90
2022/11/21 09:34:53;;;;;;;29.80;17.98;;;;;;;;;;6164474;23;20354;-91
2022/11/21 09:37:20;;;;;;;27.48;16.35;;;;;;;;;;6166006;23;20032;-88
2022/11/21 09:39:46;;;;;;;31.35;18.67;;;;;;;;;;6176157;23;20020;-90
2022/11/21 09:42:45;;;;;;;31.45;18.27;;;1.10;99.90;;;;;;6166482;23;20017;-88
2022/11/21 10:29:31;;;;;;;;;;;;;;;;;;;;;
2022/11/21 10:32:24;;;;;;;25.27;15.18;;;;;;;;;;5975157;24;20031;-93
2022/11/21 10:35:32;;;;;;;;;;;;;;;;;;;;;
2022/11/21 10:38:04;;;;;;;26.77;16.13;;;;;;;;;;5905829;24;20031;-93
2022/11/21 10:40:50;;;;;;;22.83;13.38;;;;;;;;;;5904212;24;20029;-93
2022/11/21 10:47:12;;;;;;;27.77;14.45;;;;;;;;;;5847196;24;20026;-92
2022/11/21 10:50:00;;;;;;;27.08;16.25;;;;;;;;;;5866936;24;20416;-92
2022/11/21 10:52:48;;;;;;;25.77;15.88;;;;;;;;;;5867502;24;20561;-92
2022/11/21 10:55:26;;;;;;;23.23;14.50;;;;;;;;;;5867480;24;20042;-92
2022/11/21 10:58:16;;;;;;;21.13;15.05;;;;;;;;;;5868011;24;20093;-92
2022/11/21 11:00:58;;;;;;;23.65;14.48;;;;;;;;;;5825707;24;20026;-92
2022/11/21 11:03:24;;;;;;;23.58;14.60;;;;;;;;;;5921557;24;20063;-93
2022/11/21 11:05:56;;;;;;;24.45;15.20;;;;;;;;;;5962837;23;20027;-92
2022/11/21 11:08:25;;;;;;;26.73;14.45;;;;;;;;;;5993921;23;20143;-91
2022/11/21 11:11:04;;;;;;;25.35;15.23;;;;;;;;;;5994046;23;20063;-91
2022/11/21 11:13:34;;;;;;;24.30;15.77;;;;;;;;;;5993881;23;20034;-92
2022/11/21 11:16:17;;;;;;;25.42;14.77;;;;;;;;;;6076941;23;20384;-91
2022/11/21 11:19:07;;;;;;;21.48;13.85;;;;;;;;;;6079291;23;20022;-92
2022/11/21 11:21:56;;;;;;;25.65;14.40;;;;;;;;;;6079137;23;20022;-92
2022/11/21 11:24:33;;;;;;;21.90;14.18;;;;;;;;;;6162282;23;20085;-92
2022/11/21 11:27:03;;;;;;;22.23;13.88;;;;;;;;;;6187862;23;20025;-92
2022/11/21 11:33:23;;;;;;;22.63;12.77;;;;;;;;;;6188289;23;20033;-93
2022/11/21 11:39:30;;;;;;;;;;;;;;;;;;;;;
2022/11/21 11:48:41;;;;;;;21.43;13.27;;;;;;;;;;6073165;23;20150;-92
2022/11/21 11:51:28;;;;;;;19.67;12.15;;;;;;;;;;6051054;23;20271;-92
2022/11/21 11:54:02;;;;;;;23.20;14.07;;;;;;;;;;6048316;23;20023;-89
2022/11/21 11:56:31;;;;;;;22.15;14.15;;;;;;;;;;6048261;23;20062;-86
2022/11/21 11:59:04;;;;;;;19.70;13.05;;;;;;;;;;6048400;23;20085;-87
2022/11/21 12:01:36;;;;;;;21.73;12.88;;;;;;;;;;6096231;23;20022;-87
2022/11/21 12:04:05;;;;;;;19.75;12.20;;;;;;;;;;6047870;23;20022;-89
2022/11/21 12:06:37;;;;;;;18.25;11.68;;;;;;;;;;6048350;23;20101;-86
2022/11/21 12:09:21;;;;;;;19.70;11.68;;;;;;;;;;6071923;23;20086;-86
2022/11/21 12:12:05;;;;;;;;;;;2.50;99.90;;;;;;6051707;23;20030;-87
2022/11/21 12:17:27;;;;;;;19.10;10.73;;;;;;;;;;6185242;23;20024;-86
2022/11/21 12:19:54;;;;;;;20.67;11.77;;;;;;;;;;6185930;23;20025;-90
2022/11/21 12:22:20;;;;;;;16.88;10.43;;;;;;;;;;6163070;23;20029;-86
2022/11/21 12:24:46;;;;;;;16.90;11.60;;;;;;;;;;6186487;23;20521;-84
2022/11/21 12:27:15;;;;;;;14.88;10.85;;;;;;;;;;6162129;23;20017;-84
2022/11/21 12:29:41;;;;;;;15.38;10.68;;;;;;;;;;6161733;23;20017;-88
2022/11/21 12:32:13;;;;;;;19.08;11.70;;;;;;;;;;6161457;23;20079;-85
2022/11/21 12:35:10;;;;;;;19.95;11.35;;;2.80;99.90;;;;;;6185954;23;20024;-87
2022/11/21 12:37:55;;;;;;;18.80;11.40;;;;;;;;;;6162511;23;20102;-87
2022/11/21 12:40:27;;;;;;;17.02;11.18;;;;;;;;;;6161108;23;20462;-84
2022/11/21 12:43:18;;;;;;;20.15;10.77;;;3.00;99.90;;;;;;6161675;23;20173;-84
2022/11/21 12:45:47;;;;;;;15.53;11.27;;;;;;;;;;6162006;23;20021;-85
2022/11/21 12:54:34;;;;;;;15.70;10.45;;;3.20;99.90;;;;;;6190315;23;20031;-84
2022/11/21 12:57:10;;;;;;;15.65;9.88;;;;;;;;;;6191667;23;20028;-84
2022/11/21 12:59:51;;;;;;;17.45;10.95;;;;;;;;;;6165718;23;20095;-87
2022/11/21 13:02:34;;;;;;;15.77;9.95;;;;;;;;;;6196020;23;20025;-83
2022/11/21 13:05:01;;;;;;;16.45;9.23;;;;;;;;;;6200657;23;20024;-83
2022/11/21 13:07:29;;;;;;;14.93;9.52;;;;;;;;;;6175951;23;20750;-84
2022/11/21 13:09:56;;;;;;;14.45;10.05;;;;;;;;;;6227565;23;20027;-84
2022/11/21 13:12:23;;;;;;;14.85;9.23;;;;;;;;;;6175622;23;20025;-84
2022/11/21 13:14:55;;;;;;;14.93;9.93;;;;;;;;;;6166213;23;20457;-87
2022/11/21 13:17:25;;;;;;;14.57;9.20;;;;;;;;;;6166464;23;20027;-87
2022/11/21 13:19:51;;;;;;;16.13;9.85;;;;;;;;;;6188846;23;20059;-89
2022/11/21 13:22:36;;;;;;;16.13;10.35;;;;;;;;;;6166259;23;20017;-85
2022/11/21 13:25:02;;;;;;;15.07;9.57;;;;;;;;;;6143779;23;20405;-88
2022/11/21 13:27:36;;;;;;;15.35;10.25;;;;;;;;;;6137214;23;20025;-85
2022/11/21 13:30:22;;;;;;;16.42;10.25;;;;;;;;;;6136360;23;20017;-85
2022/11/21 13:32:59;;;;;;;19.08;10.88;;;;;;;;;;6137180;23;20296;-84
2022/11/21 13:35:47;;;;;;;17.35;9.82;;;;;;;;;;6165023;23;20032;-92
2022/11/21 13:38:29;;;;;;;17.52;10.80;;;;;;;;;;6138157;23;20099;-92
2022/11/21 13:44:14;;;;;;;17.75;10.88;;;;;;;;;;6130082;23;20022;-92
2022/11/21 13:47:16;;;;;;;18.80;11.15;;;;;;;;;;6101237;23;20033;-92
2022/11/21 13:49:50;;;;;;;;;;;3.70;99.90;;;;;;6021797;23;20027;-92
2022/11/21 13:52:19;;;;;;;18.98;11.98;;;;;;;;;;6095044;23;19920;-92
2022/11/21 13:55:06;;;;;;;17.17;11.75;;;;;;;;;;6136745;23;20095;-94
2022/11/21 13:57:44;;;;;;;19.88;12.75;;;;;;;;;;6139391;23;20025;-92
2022/11/21 14:00:26;;;;;;;15.35;10.43;;;;;;;;;;6138655;23;20091;-92
2022/11/21 14:03:09;;;;;;;17.52;11.57;;;;;;;;;;6139009;23;20021;-93
2022/11/21 14:05:38;;;;;;;17.30;9.40;;;;;;;;;;6138423;23;20053;-91
2022/11/21 14:08:25;;;;;;;17.77;12.35;;;;;;;;;;6137408;23;20024;-92
2022/11/21 14:10:53;;;;;;;19.60;13.68;;;;;;;;;;6137479;23;20362;-93
2022/11/21 14:13:39;;;;;;;23.80;13.38;;;;;;;;;;6138392;23;20021;-93
2022/11/21 14:16:14;;;;;;;22.40;13.40;;;;;;;;;;6136511;23;20021;-91
2022/11/21 14:18:44;;;;;;;17.20;10.57;;;;;;;;;;6189450;23;20021;-92
2022/11/21 14:21:40;;;;;;;19.83;12.75;;;;;;;;;;6137661;23;20029;-92
2022/11/21 14:24:20;;;;;;;19.38;13.02;;;;;;;;;;6045594;23;20098;-92
2022/11/21 14:26:50;;;;;;;22.05;13.15;;;;;;;;;;6070398;23;20089;-92
2022/11/21 14:32:15;;;;;;;21.35;12.77;;;;;;;;;;6044892;23;20018;-92
2022/11/21 14:34:43;;;;;;;23.88;13.88;;;;;;;;;;6069759;23;20023;-92
2022/11/21 14:37:13;;;;;;;21.10;13.73;;;;;;;;;;6069287;23;20027;-92
2022/11/21 14:39:41;;;;;;;20.92;13.40;;;;;;;;;;6019745;23;20453;-86
2022/11/21 14:42:12;;;;;;;24.48;14.73;;;;;;;;;;6043485;23;20097;-87
2022/11/21 14:44:38;;;;;;;21.85;13.35;;;;;;;;;;6043635;23;20015;-86
2022/11/21 14:47:16;;;;;;;20.70;13.38;;;;;;;;;;6019601;23;20034;-86
2022/11/21 14:49:49;;;;;;;22.85;14.77;;;;;;;;;;6019211;23;20023;-89
2022/11/21 14:52:17;;;;;;;26.58;16.35;;;;;;;;;;6067200;23;20372;-87
2022/11/21 14:54:48;;;;;;;25.25;14.35;;;;;;;;;;6020106;23;20050;-84
2022/11/21 14:57:20;;;;;;;22.55;13.50;;;;;;;;;;6020127;23;20019;-86
2022/11/21 14:59:47;;;;;;;23.13;14.68;;;;;;;;;;6070536;23;20024;-85
2022/11/21 15:02:16;;;;;;;19.17;11.95;;;;;;;;;;6136278;23;20080;-87
2022/11/21 15:04:43;;;;;;;23.90;14.55;;;;;;;;;;6136231;23;20343;-86
2022/11/21 15:07:23;;;;;;;22.33;13.98;;;;;;;;;;6187318;23;20025;-89
2022/11/21 15:09:49;;;;;;;22.23;13.10;;;;;;;;;;6161812;23;20100;-85
2022/11/21 15:12:22;;;;;;;24.27;14.93;;;;;;;;;;6136832;23;20340;-86
2022/11/21 15:14:50;;;;;;;25.27;15.18;;;;;;;;;;6136301;23;20020;-86
2022/11/21 15:17:19;;;;;;;22.85;14.07;;;;;;;;;;6136455;23;20025;-86
2022/11/21 15:19:45;;;;;;;28.25;15.68;;;;;;;;;;6160308;23;20411;-86
2022/11/21 15:22:38;;;;;;;23.70;14.63;;;;;;;;;;6136231;23;20017;-84
2022/11/21 15:25:19;;;;;;;30.58;15.60;;;;;;;;;;6131652;23;20067;-89
2022/11/21 15:27:49;;;;;;;23.38;14.07;;;;;;;;;;6135930;23;20451;-88
2022/11/21 15:30:18;;;;;;;24.17;13.65;;;;;;;;;;6160397;23;20096;-86
2022/11/21 15:33:00;;;;;;;22.80;14.75;;;;;;;;;;6159842;23;20052;-86
2022/11/21 15:35:27;;;;;;;24.55;14.85;;;;;;;;;;6160535;23;20021;-90
2022/11/21 15:37:53;;;;;;;27.00;14.68;;;;;;;;;;6135983;23;20343;-89
2022/11/21 15:40:20;;;;;;;21.05;14.23;;;;;;;;;;6159620;23;20021;-84
2022/11/21 15:42:47;;;;;;;31.13;16.30;;;;;;;;;;6135122;23;20028;-88
2022/11/21 15:45:16;;;;;;;29.33;16.63;;;;;;;;;;6160838;23;20021;-86
2022/11/21 15:47:42;;;;;;;27.58;16.23;;;;;;;;;;6134900;23;20028;-85
2022/11/21 15:50:08;;;;;;;27.20;16.15;;;;;;;;;;6159620;23;20358;-87
2022/11/21 15:52:44;;;;;;;26.73;15.60;;;;;;;;;;6134997;23;20044;-86
2022/11/21 15:55:13;;;;;;;28.00;17.30;;;;;;;;;;6161300;23;20027;-83
2022/11/21 15:57:39;;;;;;;30.17;18.40;;;;;;;;;;6136894;23;20088;-88
2022/11/21 16:00:07;;;;;;;26.95;17.25;;;;;;;;;;6136761;23;20023;-85